Time;durP1;ratioP1;P1;durP2;ratioP2;P2;SDS_P1;SDS_P2;PMS_P1;PMS_P2;Temp;Humidity;BMP_temperature;BMP_pressure;BME280_temperature;BME280_humidity;BME280_pressure;Samples;Min_cycle;Max_cycle;Signal;HPM_P1;HPM_P2
2023/06/25 00:00:57;;;;;;;18.30;14.95;;;;;;;21.29;78.23;101874.28;5113341;28;20073;-62
2023/06/25 00:03:23;;;;;;;18.08;15.20;;;;;;;21.26;78.02;101874.59;5094977;28;20019;-62
2023/06/25 00:05:48;;;;;;;21.27;15.90;;;;;;;21.26;78.37;101871.88;5095330;27;20356;-63
2023/06/25 00:08:13;;;;;;;18.80;16.55;;;;;;;21.23;78.52;101869.44;5096138;28;20031;-63
2023/06/25 00:10:39;;;;;;;17.60;15.70;;;;;;;21.23;78.33;101872.16;5112775;28;20119;-62
2023/06/25 00:13:04;;;;;;;22.33;16.20;;;;;;;20.88;79.91;101856.44;5112988;28;20028;-62
2023/06/25 00:15:30;;;;;;;18.77;16.83;;;;;;;21.06;79.62;101862.91;5112844;28;20027;-63
2023/06/25 00:17:55;;;;;;;20.30;16.92;;;;;;;21.15;78.89;101865.75;5094664;28;20022;-62
2023/06/25 00:20:22;;;;;;;19.30;15.90;;;;;;;21.11;78.74;101867.88;5112985;28;20062;-63
2023/06/25 00:22:47;;;;;;;20.27;16.45;;;;;;;21.01;79.95;101861.63;5094830;27;20092;-62
2023/06/25 00:25:14;;;;;;;19.17;16.85;;;;;;;20.97;79.95;101862.88;5112016;28;20482;-62
2023/06/25 00:27:40;;;;;;;20.10;17.35;;;;;;;20.91;79.91;101855.31;5112696;28;20067;-62
2023/06/25 00:30:07;;;;;;;20.75;17.15;;;;;;;20.95;80.45;101854.91;5112627;28;20474;-62
2023/06/25 00:32:33;;;;;;;18.77;16.75;;;;;;;20.93;80.09;101854.19;5112826;28;20015;-63
2023/06/25 00:34:59;;;;;;;18.98;16.58;;;;;;;20.82;80.91;101852.47;5094647;28;20030;-62
2023/06/25 00:37:27;;;;;;;19.63;16.20;;;;;;;20.89;81.11;101849.22;5112195;28;20031;-62
2023/06/25 00:39:53;;;;;;;19.75;16.42;;;;;;;20.84;81.06;101849.63;5112761;27;20090;-63
2023/06/25 00:42:18;;;;;;;19.17;16.50;;;;;;;20.77;81.39;101843.06;5112487;28;20035;-63
2023/06/25 00:44:46;;;;;;;21.45;17.15;;;;;;;20.66;81.97;101848.59;5112290;28;20054;-62
2023/06/25 00:47:14;;;;;;;19.70;17.60;;;;;;;20.70;81.60;101844.59;5094445;28;20470;-62
2023/06/25 00:49:44;;;;;;;19.63;17.53;;;;;;;20.67;81.50;101836.78;5112247;28;20548;-63
2023/06/25 00:52:13;;;;;;;20.48;17.08;;;;;;;20.60;82.14;101847.28;5112254;28;20285;-63
2023/06/25 00:54:40;;;;;;;18.15;16.27;;;;;;;20.59;81.74;101843.72;5093751;28;20062;-63
2023/06/25 00:57:07;;;;;;;19.60;16.38;;;;;;;20.59;82.00;101843.72;5096662;27;20080;-63
2023/06/25 00:59:39;;;;;;;19.77;16.55;;;;;;;20.57;81.81;101834.91;5073917;28;20085;-63
2023/06/25 01:02:15;;;;;;;21.35;17.17;;;;;;;20.48;82.40;101826.75;5073187;28;20024;-63
2023/06/25 01:04:57;;;;;;;19.15;17.15;;;;;;;20.49;82.43;101833.84;5094436;28;20027;-63
2023/06/25 01:07:25;;;;;;;20.85;18.67;;;;;;;20.35;83.00;101826.97;5112173;28;20030;-63
2023/06/25 01:09:50;;;;;;;23.35;19.20;;;;;;;20.39;82.97;101826.56;5093577;28;20028;-63
2023/06/25 01:12:16;;;;;;;21.25;17.48;;;;;;;20.37;83.29;101823.13;5112257;28;20093;-63
2023/06/25 01:14:42;;;;;;;21.77;18.15;;;;;;;20.24;83.52;101822.53;5119849;28;20386;-63
2023/06/25 01:17:08;;;;;;;19.65;17.63;;;;;;;20.22;83.28;101812.84;5112198;28;20019;-63
2023/06/25 01:19:35;;;;;;;24.42;18.65;;;;;;;20.17;83.96;101816.78;5111809;28;20031;-63
2023/06/25 01:22:02;;;;;;;20.45;18.20;;;;;;;20.20;83.74;101827.31;5094024;28;20031;-63
2023/06/25 01:24:28;;;;;;;19.92;17.05;;;;;;;19.98;84.35;101822.13;5111368;28;20024;-62
2023/06/25 01:27:00;;;;;;;21.27;17.75;;;;;;;20.13;83.77;101822.63;5112169;28;20027;-63
2023/06/25 01:29:29;;;;;;;19.58;17.55;;;;;;;20.03;84.40;101825.28;5092763;28;20035;-63
2023/06/25 01:31:54;;;;;;;23.55;19.10;;;;;;;20.06;84.40;101807.91;5112514;28;20066;-63
2023/06/25 01:34:21;;;;;;;20.92;18.77;;;;;;;19.90;85.49;101809.28;5111715;28;20036;-63
2023/06/25 01:36:49;;;;;;;23.05;20.48;;;;;;;19.99;85.02;101810.31;5111528;28;20043;-63
2023/06/25 01:39:17;;;;;;;23.48;20.98;;;;;;;19.96;85.27;101810.59;5111682;28;20050;-63
2023/06/25 01:41:46;;;;;;;23.80;19.85;;;;;;;20.03;84.62;101800.09;5111910;28;20043;-63
2023/06/25 01:44:15;;;;;;;22.75;19.50;;;;;;;19.98;84.36;101797.81;5093343;28;20048;-63
2023/06/25 01:46:40;;;;;;;;;;;;;;;20.20;81.78;101797.59;5112444;28;20553;-63
2023/06/25 01:49:06;;;;;;;22.55;19.45;;;;;;;19.94;84.41;101797.22;5122736;28;19990;-63
2023/06/25 01:51:31;;;;;;;21.88;19.33;;;;;;;19.81;85.10;101779.53;5132570;28;20144;-63
2023/06/25 01:53:59;;;;;;;24.40;20.77;;;;;;;19.84;85.39;101785.50;5131986;28;20406;-63
2023/06/25 01:56:25;;;;;;;22.38;19.98;;;;;;;19.83;85.40;101785.66;5112620;28;20032;-63
2023/06/25 01:58:54;;;;;;;22.75;19.63;;;;;;;19.82;85.58;101782.06;5111545;28;20367;-63
2023/06/25 02:01:20;;;;;;;23.77;19.67;;;;;;;19.85;85.06;101779.09;5111927;28;20188;-63
2023/06/25 02:03:46;;;;;;;24.33;20.30;;;;;;;19.68;85.83;101786.00;5092920;28;20102;-63
2023/06/25 02:06:11;;;;;;;20.88;18.77;;;;;;;19.68;85.60;101777.91;5112862;28;20028;-62
2023/06/25 02:08:36;;;;;;;22.40;19.33;;;;;;;19.62;85.63;101770.31;5111173;28;20425;-63
2023/06/25 02:11:02;;;;;;;22.02;19.65;;;;;;;19.59;86.29;101767.00;5093666;28;20026;-63
2023/06/25 02:13:27;;;;;;;23.00;20.35;;;;;;;19.66;86.04;101762.81;5114359;27;20486;-63
2023/06/25 02:15:53;;;;;;;24.80;20.65;;;;;;;19.50;86.93;101760.56;5115339;28;20039;-63
2023/06/25 02:18:18;;;;;;;22.30;20.00;;;;;;;19.60;86.11;101760.63;5115026;28;20377;-63
2023/06/25 02:20:43;;;;;;;23.02;20.65;;;;;;;19.52;86.43;101754.03;5115407;28;20020;-63
2023/06/25 02:23:09;;;;;;;23.63;21.10;;;;;;;19.38;87.10;101738.19;5102649;28;20031;-63
2023/06/25 02:25:34;;;;;;;23.60;21.13;;;;;;;19.48;87.14;101751.75;5112779;28;20099;-63
2023/06/25 02:27:59;;;;;;;25.90;21.15;;;;;;;19.49;86.77;101748.06;5114495;28;20474;-63
2023/06/25 02:30:25;;;;;;;24.15;21.65;;;;;;;19.38;87.22;101743.56;5094945;28;20089;-62
2023/06/25 02:32:50;;;;;;;26.35;21.83;;;;;;;19.39;87.32;101744.47;5114704;28;20016;-63
2023/06/25 02:35:15;;;;;;;24.48;21.88;;;;;;;19.25;87.87;101749.19;5113080;28;20020;-63
2023/06/25 02:37:41;;;;;;;26.83;22.83;;;;;;;19.14;88.46;101735.75;5114790;28;20480;-63
2023/06/25 02:40:09;;;;;;;23.08;20.77;;;;;;;19.26;88.08;101736.53;5113560;28;20034;-63
2023/06/25 02:42:37;;;;;;;23.73;20.40;;;;;;;19.27;87.91;101732.88;5113965;28;20487;-63
2023/06/25 02:45:03;;;;;;;27.55;21.85;;;;;;;19.25;87.74;101737.53;5107210;28;20023;-63
2023/06/25 02:47:28;;;;;;;22.92;20.48;;;;;;;19.21;88.00;101733.41;5104848;28;20031;-63
2023/06/25 02:49:54;;;;;;;24.10;21.08;;;;;;;19.19;87.78;101733.53;5087223;28;20040;-63
2023/06/25 02:52:19;;;;;;;22.55;20.00;;;;;;;19.17;87.91;101734.63;5113562;28;20547;-62
2023/06/25 02:54:45;;;;;;;22.70;20.25;;;;;;;18.97;88.22;101734.50;5113066;28;20038;-63
2023/06/25 02:57:10;;;;;;;23.73;20.85;;;;;;;19.15;87.97;101726.69;5087408;28;20031;-63
2023/06/25 02:59:38;;;;;;;23.95;21.17;;;;;;;19.03;88.77;101730.41;5094002;28;20051;-63
2023/06/25 03:02:04;;;;;;;23.17;20.75;;;;;;;18.99;88.85;101735.22;5096107;28;20027;-63
2023/06/25 03:04:29;;;;;;;24.83;22.13;;;;;;;18.95;88.90;101722.13;5112624;28;20518;-63
2023/06/25 03:06:54;;;;;;;23.33;20.85;;;;;;;19.02;88.71;101734.09;5113033;28;20046;-63
2023/06/25 03:09:22;;;;;;;23.08;20.77;;;;;;;18.94;88.85;101732.06;5112841;28;20065;-63
2023/06/25 03:11:47;;;;;;;22.25;19.95;;;;;;;19.02;88.67;101739.50;5078595;28;20406;-62
2023/06/25 03:14:13;;;;;;;26.60;20.33;;;;;;;18.95;88.51;101732.94;5109537;28;20020;-63
2023/06/25 03:16:38;;;;;;;27.77;21.25;;;;;;;18.88;88.88;101731.72;5113031;28;20027;-63
2023/06/25 03:19:08;;;;;;;28.73;20.17;;;;;;;18.94;88.53;101728.50;5113211;28;20034;-64
2023/06/25 03:21:34;;;;;;;22.50;20.20;;;;;;;18.73;89.27;101723.03;5082567;28;20058;-64
2023/06/25 03:23:59;;;;;;;22.58;20.25;;;;;;;18.71;88.59;101708.88;5101160;28;20027;-63
2023/06/25 03:26:24;;;;;;;22.05;19.65;;;;;;;18.81;89.23;101728.69;5080463;28;20031;-63
2023/06/25 03:28:51;;;;;;;22.02;19.77;;;;;;;18.76;89.20;101726.34;5093425;28;20070;-63
2023/06/25 03:31:17;;;;;;;22.17;19.77;;;;;;;18.83;88.83;101727.56;5103332;28;20034;-63
2023/06/25 03:33:42;;;;;;;25.77;20.38;;;;;;;18.70;89.47;101721.44;5094353;28;20378;-62
2023/06/25 03:36:08;;;;;;;26.13;22.55;;;;;;;18.66;89.63;101725.41;5113534;28;20031;-63
2023/06/25 03:38:33;;;;;;;23.77;21.38;;;;;;;18.67;89.46;101710.09;5113351;28;20106;-63
2023/06/25 03:40:58;;;;;;;28.55;23.25;;;;;;;18.74;89.62;101722.97;5113813;28;20023;-63
2023/06/25 03:43:24;;;;;;;27.90;22.52;;;;;;;18.73;89.65;101723.94;5113458;28;20386;-63
2023/06/25 03:45:49;;;;;;;24.40;21.85;;;;;;;18.77;88.97;101721.84;5112793;28;20023;-63
2023/06/25 03:48:15;;;;;;;26.23;22.52;;;;;;;18.71;89.73;101711.56;5084686;28;20068;-62
2023/06/25 03:50:40;;;;;;;26.08;23.02;;;;;;;18.61;90.35;101711.44;5074593;28;20039;-63
2023/06/25 03:53:05;;;;;;;33.90;23.80;;;;;;;18.39;91.22;101713.25;5110886;28;20123;-63
2023/06/25 03:55:31;;;;;;;32.25;24.23;;;;;;;18.64;90.33;101704.94;5095004;28;20070;-63
2023/06/25 03:57:56;;;;;;;27.30;23.92;;;;;;;18.71;89.82;101715.09;5113250;28;20094;-63
2023/06/25 04:00:22;;;;;;;27.50;24.38;;;;;;;18.59;90.23;101710.75;5112897;28;20019;-63
2023/06/25 04:02:47;;;;;;;28.90;24.33;;;;;;;18.58;89.91;101703.63;5113238;28;20058;-63
2023/06/25 04:05:15;;;;;;;27.48;24.60;;;;;;;18.58;89.87;101712.56;5113880;27;20374;-63
2023/06/25 04:07:40;;;;;;;29.00;24.15;;;;;;;18.55;90.35;101709.25;5094459;28;20473;-63
2023/06/25 04:10:06;;;;;;;27.35;24.55;;;;;;;18.70;89.79;101712.53;5112607;28;20049;-63
2023/06/25 04:12:34;;;;;;;27.23;24.33;;;;;;;18.73;89.59;101714.94;5113253;28;20020;-62
2023/06/25 04:15:02;;;;;;;26.90;24.00;;;;;;;18.77;88.97;101708.38;5112885;28;20600;-63
2023/06/25 04:17:27;;;;;;;30.92;24.38;;;;;;;18.79;88.75;101719.84;5112752;28;20028;-62
2023/06/25 04:19:53;;;;;;;27.52;23.98;;;;;;;18.65;89.35;101718.31;5106381;28;20038;-63
2023/06/25 04:22:18;;;;;;;26.27;23.63;;;;;;;18.71;89.09;101707.00;5111952;28;20033;-63
2023/06/25 04:24:43;;;;;;;26.55;23.55;;;;;;;18.74;88.93;101709.47;5093905;28;20020;-63
2023/06/25 04:27:09;;;;;;;26.70;24.08;;;;;;;18.69;89.13;101700.03;5094086;28;20036;-63
2023/06/25 04:29:34;;;;;;;26.25;23.38;;;;;;;18.73;89.33;101704.19;5112175;28;20023;-63
2023/06/25 04:32:01;;;;;;;25.48;22.85;;;;;;;18.77;88.95;101706.53;5112738;28;20032;-62
2023/06/25 04:34:26;;;;;;;26.42;23.35;;;;;;;18.82;88.80;101706.13;5112596;28;20076;-63
2023/06/25 04:36:52;;;;;;;30.50;22.88;;;;;;;18.90;88.12;101708.19;5111656;28;20027;-62
2023/06/25 04:39:18;;;;;;;25.85;23.25;;;;;;;18.88;88.62;101707.44;5112647;28;20020;-62
2023/06/25 04:41:43;;;;;;;26.42;23.58;;;;;;;18.79;88.33;101709.94;5112441;28;20024;-62
2023/06/25 04:44:09;;;;;;;26.75;23.38;;;;;;;18.86;88.98;101712.13;5112254;28;20015;-62
2023/06/25 04:46:36;;;;;;;24.35;21.85;;;;;;;18.89;89.03;101703.78;5112137;28;20088;-62
2023/06/25 04:49:02;;;;;;;25.80;22.42;;;;;;;18.93;88.37;101697.16;5111019;28;20055;-62
2023/06/25 04:51:27;;;;;;;27.92;24.60;;;;;;;18.95;88.39;101704.13;5111574;28;20027;-62
2023/06/25 04:53:52;;;;;;;26.67;23.98;;;;;;;19.01;88.07;101705.44;5111554;28;20024;-62
2023/06/25 04:56:18;;;;;;;25.33;22.65;;;;;;;19.06;88.01;101705.91;5094347;28;20039;-62
2023/06/25 04:58:43;;;;;;;25.10;22.48;;;;;;;19.14;87.74;101710.63;5111833;28;20386;-63
2023/06/25 05:01:09;;;;;;;25.52;22.83;;;;;;;19.11;87.58;101706.34;5112406;28;20390;-62
2023/06/25 05:03:34;;;;;;;26.10;23.33;;;;;;;19.09;88.63;101693.97;5112045;28;20110;-63
2023/06/25 05:06:02;;;;;;;25.42;22.83;;;;;;;19.26;87.55;101710.41;5093777;28;20024;-62
2023/06/25 05:08:27;;;;;;;29.83;25.45;;;;;;;19.34;87.61;101706.22;5111315;28;20031;-63
2023/06/25 05:10:52;;;;;;;26.13;23.33;;;;;;;19.50;85.85;101701.19;5111862;28;20206;-62
2023/06/25 05:13:18;;;;;;;25.92;23.23;;;;;;;19.63;83.29;101703.69;5106807;28;20093;-62
2023/06/25 05:15:43;;;;;;;27.25;24.45;;;;;;;19.71;82.31;101704.75;5132723;28;20038;-62
2023/06/25 05:18:09;;;;;;;27.73;24.75;;;;;;;19.78;82.68;101702.34;5098497;28;20023;-62
2023/06/25 05:20:38;;;;;;;26.55;23.80;;;;;;;19.75;83.53;101708.03;5112139;28;20069;-62
2023/06/25 05:23:04;;;;;;;26.15;23.48;;;;;;;19.72;83.90;101684.84;5111325;28;20077;-63
2023/06/25 05:25:33;;;;;;;28.33;25.08;;;;;;;19.91;83.56;101702.13;5093172;28;20080;-62
2023/06/25 05:28:01;;;;;;;26.38;23.60;;;;;;;20.02;80.80;101702.00;5110534;28;20028;-62
2023/06/25 05:30:30;;;;;;;26.90;24.20;;;;;;;20.03;82.99;101702.88;5095986;28;20077;-62
2023/06/25 05:32:56;;;;;;;26.88;24.02;;;;;;;20.16;81.70;101706.19;5110404;28;20027;-62
2023/06/25 05:35:22;;;;;;;24.70;22.20;;;;;;;20.26;79.61;101703.50;5110835;28;20081;-62
2023/06/25 05:37:48;;;;;;;27.13;24.52;;;;;;;20.17;81.27;101703.34;5090311;28;20119;-63
2023/06/25 05:40:14;;;;;;;25.92;22.98;;;;;;;20.43;78.44;101700.97;5091848;28;20111;-62
2023/06/25 05:42:40;;;;;;;25.85;22.83;;;;;;;20.39;80.76;101704.09;5111444;28;20370;-62
2023/06/25 05:45:06;;;;;;;23.70;21.17;;;;;;;20.52;79.98;101707.41;5111704;28;20110;-62
2023/06/25 05:47:31;;;;;;;23.75;20.52;;;;;;;20.64;75.59;101706.28;5095756;28;20032;-62
2023/06/25 05:49:57;;;;;;;23.55;20.58;;;;;;;20.67;77.44;101690.78;5115338;28;20380;-62
2023/06/25 05:52:22;;;;;;;22.10;19.80;;;;;;;20.78;74.52;101690.66;5115489;28;20246;-62
2023/06/25 05:54:48;;;;;;;20.88;18.77;;;;;;;20.94;74.12;101695.47;5114866;28;20019;-62
2023/06/25 05:57:13;;;;;;;21.60;19.38;;;;;;;21.04;72.80;101689.06;5115453;28;20476;-62
2023/06/25 05:59:38;;;;;;;20.90;18.67;;;;;;;21.06;73.89;101689.78;5097324;28;20039;-62
2023/06/25 06:02:07;;;;;;;18.80;17.00;;;;;;;21.10;74.13;101680.34;5097160;28;20019;-62
2023/06/25 06:04:38;;;;;;;18.60;16.75;;;;;;;21.35;72.91;101682.59;5116260;27;20130;-62
2023/06/25 06:07:03;;;;;;;19.38;17.38;;;;;;;21.38;73.55;101679.59;5098829;28;20458;-63
2023/06/25 06:09:29;;;;;;;18.13;16.38;;;;;;;21.45;74.80;101683.47;5113457;28;20034;-62
2023/06/25 06:11:55;;;;;;;18.42;16.33;;;;;;;21.53;74.42;101676.31;5103075;28;20091;-62
2023/06/25 06:14:23;;;;;;;17.95;16.15;;;;;;;21.67;71.36;101676.81;5103780;28;20043;-62
2023/06/25 06:16:48;;;;;;;17.92;15.93;;;;;;;21.83;68.56;101697.84;5113206;28;20024;-62
2023/06/25 06:19:14;;;;;;;21.73;15.82;;;;;;;21.90;69.21;101699.78;5096824;28;20024;-62
2023/06/25 06:21:39;;;;;;;19.65;14.88;;;;;;;22.05;67.59;101702.00;5096694;28;20046;-62
2023/06/25 06:24:05;;;;;;;16.23;14.55;;;;;;;22.17;66.87;101696.25;5114535;28;20027;-62
2023/06/25 06:26:30;;;;;;;14.82;13.32;;;;;;;22.20;65.63;101706.78;5115417;28;20039;-62
2023/06/25 06:28:55;;;;;;;14.93;13.18;;;;;;;22.27;65.84;101689.94;5115203;28;20050;-62
2023/06/25 06:31:22;;;;;;;13.80;12.40;;;;;;;22.34;64.64;101705.41;5096490;28;20023;-62
2023/06/25 06:33:47;;;;;;;14.52;12.80;;;;;;;22.49;63.77;101702.19;5078987;28;20490;-63
2023/06/25 06:36:13;;;;;;;14.23;12.73;;;;;;;22.57;63.52;101703.13;5096704;28;20058;-62
2023/06/25 06:38:39;;;;;;;14.77;12.32;;;;;;;22.64;62.79;101696.06;5114240;28;20031;-62
2023/06/25 06:41:04;;;;;;;14.02;12.52;;;;;;;22.75;61.75;101694.97;5114829;28;20081;-62
2023/06/25 06:43:31;;;;;;;15.15;11.07;;;;;;;22.85;60.47;101694.91;5113962;28;20076;-62
2023/06/25 06:45:56;;;;;;;10.63;9.43;;;;;;;22.92;58.04;101690.56;5076494;28;20028;-62
2023/06/25 06:48:22;;;;;;;11.70;9.60;;;;;;;23.02;56.01;101694.06;5119580;27;20024;-62
2023/06/25 06:50:47;;;;;;;12.75;9.48;;;;;;;23.07;56.93;101686.28;5113218;28;20048;-62
2023/06/25 06:53:13;;;;;;;9.88;8.05;;;;;;;23.06;53.08;101664.72;5113755;28;20023;-63
2023/06/25 06:55:38;;;;;;;12.10;7.82;;;;;;;23.28;59.51;101693.22;5114543;28;20023;-62
2023/06/25 06:58:04;;;;;;;10.25;7.50;;;;;;;23.39;56.07;101686.69;5114113;28;20020;-62
2023/06/25 07:00:31;;;;;;;11.30;7.10;;;;;;;23.52;52.94;101684.38;5113586;28;20016;-63
2023/06/25 07:02:59;;;;;;;9.25;6.90;;;;;;;23.58;56.06;101684.59;5094918;28;20076;-62
2023/06/25 07:05:25;;;;;;;10.95;7.00;;;;;;;23.79;54.43;101683.34;5077387;28;20039;-63
2023/06/25 07:07:51;;;;;;;8.43;6.93;;;;;;;23.75;51.09;101687.44;5093760;28;20028;-63
2023/06/25 07:10:21;;;;;;;7.00;6.10;;;;;;;23.77;54.01;101683.53;5101265;28;20031;-62
2023/06/25 07:12:49;;;;;;;10.05;6.93;;;;;;;23.72;51.54;101685.88;5114306;28;20039;-62
2023/06/25 07:15:15;;;;;;;11.65;6.60;;;;;;;23.80;51.26;101685.09;5112151;28;20111;-63
2023/06/25 07:17:41;;;;;;;8.35;6.38;;;;;;;23.76;52.61;101681.81;5095868;28;20157;-62
2023/06/25 07:20:08;;;;;;;11.55;7.00;;;;;;;23.78;52.11;101684.38;5094662;28;20020;-62
2023/06/25 07:22:34;;;;;;;9.18;6.75;;;;;;;23.85;52.32;101699.00;5113756;28;20046;-62
2023/06/25 07:25:02;;;;;;;7.63;6.82;;;;;;;23.93;55.46;101690.91;5112724;28;20502;-62
2023/06/25 07:27:27;;;;;;;9.35;6.40;;;;;;;23.97;53.04;101685.97;5113252;28;20364;-62
2023/06/25 07:29:53;;;;;;;12.38;6.60;;;;;;;23.98;54.29;101690.41;5111855;28;20072;-62
2023/06/25 07:32:18;;;;;;;9.13;6.65;;;;;;;24.07;52.84;101685.88;5113716;28;20031;-62
2023/06/25 07:34:44;;;;;;;8.05;5.82;;;;;;;24.10;58.22;101674.66;5094394;28;20114;-61
2023/06/25 07:37:09;;;;;;;9.23;6.05;;;;;;;24.31;53.67;101679.63;5095277;28;20281;-62
2023/06/25 07:39:37;;;;;;;6.90;6.00;;;;;;;24.26;52.31;101677.41;5113043;28;20124;-61
2023/06/25 07:42:02;;;;;;;11.63;7.15;;;;;;;24.34;52.42;101677.44;5113831;28;20022;-68
2023/06/25 07:44:28;;;;;;;17.40;7.57;;;;;;;24.37;51.59;101679.81;5104439;28;20406;-72
2023/06/25 07:46:53;;;;;;;9.45;7.07;;;;;;;24.50;52.63;101678.50;5105270;28;20153;-68
2023/06/25 07:49:18;;;;;;;9.65;7.05;;;;;;;24.55;52.05;101666.09;5093828;28;20036;-68
2023/06/25 07:51:52;;;;;;;10.27;7.18;;;;;;;24.71;53.07;101668.00;5110598;28;20034;-71
2023/06/25 07:54:18;;;;;;;9.77;6.30;;;;;;;24.80;51.85;101674.28;5094389;28;20026;-69
2023/06/25 07:56:44;;;;;;;9.68;6.55;;;;;;;24.93;51.79;101659.13;5095199;28;20020;-69
2023/06/25 07:59:12;;;;;;;9.27;6.22;;;;;;;24.97;53.46;101662.34;5113313;28;20039;-68
2023/06/25 08:01:37;;;;;;;9.03;6.37;;;;;;;25.03;52.01;101666.25;5104709;28;20433;-70
2023/06/25 08:04:03;;;;;;;8.57;6.45;;;;;;;25.02;52.16;101668.16;5113751;27;20305;-72
2023/06/25 08:06:28;;;;;;;8.38;6.38;;;;;;;25.07;52.17;101670.38;5098518;28;20115;-71
2023/06/25 08:08:55;;;;;;;8.23;6.38;;;;;;;25.22;52.40;101663.22;5111402;28;20049;-71
2023/06/25 08:11:20;;;;;;;9.75;6.18;;;;;;;25.29;51.43;101657.91;5112870;28;20061;-69
2023/06/25 08:13:46;;;;;;;8.35;7.32;;;;;;;25.33;50.94;101672.91;5113069;28;20028;-72
2023/06/25 08:16:11;;;;;;;11.50;6.55;;;;;;;25.35;50.63;101669.00;5113265;28;20382;-71
2023/06/25 08:18:36;;;;;;;8.50;5.93;;;;;;;25.41;50.89;101653.81;5111512;28;20038;-70
2023/06/25 08:21:02;;;;;;;7.53;5.65;;;;;;;25.56;51.65;101659.38;5112722;28;20049;-72
2023/06/25 08:23:27;;;;;;;9.68;5.93;;;;;;;25.63;51.78;101662.25;5112387;28;20110;-70
2023/06/25 08:25:56;;;;;;;9.40;6.10;;;;;;;25.59;50.47;101664.50;5093264;28;20122;-71
2023/06/25 08:28:21;;;;;;;7.55;5.97;;;;;;;25.78;50.87;101661.34;5112503;28;20034;-71
2023/06/25 08:30:47;;;;;;;7.45;6.53;;;;;;;25.83;50.93;101666.31;5094328;28;20023;-73
2023/06/25 08:33:12;;;;;;;6.78;6.15;;;;;;;25.90;50.69;101653.66;5111638;28;20035;-72
2023/06/25 08:35:37;;;;;;;8.30;6.20;;;;;;;25.93;50.05;101644.28;5084542;28;20032;-69
2023/06/25 08:38:03;;;;;;;6.75;5.97;;;;;;;25.97;50.05;101656.50;5092356;28;20463;-70
2023/06/25 08:40:31;;;;;;;12.18;6.30;;;;;;;26.13;51.72;101661.03;5111618;28;20024;-67
2023/06/25 08:42:56;;;;;;;5.88;5.18;;;;;;;26.16;50.37;101649.78;5096336;28;20020;-62
2023/06/25 08:45:22;;;;;;;7.30;5.95;;;;;;;26.14;49.58;101649.09;5106011;28;20027;-62
2023/06/25 08:47:55;;;;;;;6.45;5.55;;;;;;;26.10;49.97;101642.31;5101919;28;20066;-62
2023/06/25 08:50:24;;;;;;;6.85;5.47;;;;;;;26.18;49.04;101647.72;5101554;28;20402;-62
2023/06/25 08:52:51;;;;;;;6.80;5.90;;;;;;;26.14;49.11;101636.31;5111770;28;20031;-62
2023/06/25 08:55:19;;;;;;;6.63;5.25;;;;;;;26.19;47.91;101644.81;5093738;28;20027;-62
2023/06/25 08:57:45;;;;;;;;;;;;;;;26.35;49.82;101648.44;5112345;28;20016;-62
2023/06/25 09:00:13;;;;;;;6.82;5.43;;;;;;;26.29;48.51;101626.31;5098009;28;19937;-63
2023/06/25 09:02:39;;;;;;;8.55;5.65;;;;;;;26.47;48.12;101644.25;5091810;28;20073;-63
2023/06/25 09:05:12;;;;;;;6.63;5.60;;;;;;;26.54;49.94;101642.56;5093780;28;20023;-62
2023/06/25 09:07:46;;;;;;;9.48;5.65;;;;;;;26.68;49.11;101644.50;5112290;28;20027;-62
2023/06/25 09:10:12;;;;;;;6.03;5.43;;;;;;;26.64;47.74;101626.75;5111241;28;20059;-62
2023/06/25 09:12:37;;;;;;;6.50;5.45;;;;;;;26.66;47.71;101629.31;5112110;28;20023;-61
2023/06/25 09:15:05;;;;;;;5.88;5.28;;;;;;;26.79;48.06;101634.16;5112032;28;20023;-63
2023/06/25 09:17:30;;;;;;;5.85;5.25;;;;;;;26.94;49.43;101630.44;5093631;28;20470;-63
2023/06/25 09:20:02;;;;;;;6.72;5.88;;;;;;;27.00;48.65;101634.28;5111641;28;20038;-63
2023/06/25 09:22:30;;;;;;;5.57;5.00;;;;;;;27.06;46.25;101630.84;5113719;28;20383;-62
2023/06/25 09:24:55;;;;;;;5.90;5.30;;;;;;;27.10;46.90;101620.38;5115875;28;20026;-63
2023/06/25 09:27:21;;;;;;;5.70;5.07;;;;;;;27.31;47.25;101625.97;5116326;28;20028;-62
2023/06/25 09:29:47;;;;;;;6.32;5.65;;;;;;;27.27;47.33;101624.66;5116095;28;20378;-63
2023/06/25 09:32:12;;;;;;;5.55;5.05;;;;;;;27.38;46.30;101628.78;5097547;28;20063;-63
2023/06/25 09:34:41;;;;;;;5.95;5.22;;;;;;;27.42;45.97;101618.34;5116207;28;20486;-63
2023/06/25 09:37:07;;;;;;;5.80;5.22;;;;;;;27.42;45.00;101621.09;5116470;28;20027;-63
2023/06/25 09:39:32;;;;;;;5.63;5.10;;;;;;;27.55;45.45;101627.56;5097401;28;20435;-63
2023/06/25 09:42:00;;;;;;;5.70;4.97;;;;;;;27.49;44.62;101611.91;5095685;28;20028;-63
2023/06/25 09:44:27;;;;;;;5.32;4.82;;;;;;;27.67;44.55;101625.19;5095593;28;20030;-63
2023/06/25 09:47:02;;;;;;;5.75;5.00;;;;;;;27.63;44.51;101612.94;5095296;28;20028;-63
2023/06/25 09:49:30;;;;;;;5.43;4.93;;;;;;;27.81;44.98;101615.31;5095326;28;20044;-63
2023/06/25 09:52:01;;;;;;;8.40;5.32;;;;;;;27.79;44.15;101603.72;5113094;28;20031;-63
2023/06/25 09:54:29;;;;;;;8.55;5.05;;;;;;;27.87;42.91;101609.06;5115422;28;20026;-63
2023/06/25 09:56:56;;;;;;;5.35;4.85;;;;;;;27.94;43.21;101601.78;5116244;28;20032;-63
2023/06/25 09:59:21;;;;;;;6.82;5.07;;;;;;;28.07;43.61;101595.63;5115192;28;20076;-63
2023/06/25 10:01:47;;;;;;;6.82;5.20;;;;;;;28.00;43.71;101602.91;5097056;28;20023;-63
2023/06/25 10:04:12;;;;;;;6.70;5.18;;;;;;;28.18;44.13;101599.72;5115543;28;20023;-61
2023/06/25 10:06:38;;;;;;;5.88;4.97;;;;;;;28.17;42.05;101601.63;5115503;28;20378;-61
2023/06/25 10:09:05;;;;;;;5.10;4.50;;;;;;;28.21;41.85;101602.94;5096459;28;20027;-61
2023/06/25 10:11:30;;;;;;;8.32;5.18;;;;;;;28.19;42.14;101596.81;5115062;28;20039;-63
2023/06/25 10:13:58;;;;;;;6.97;5.22;;;;;;;28.29;42.67;101589.09;5115199;28;20064;-63
2023/06/25 10:16:31;;;;;;;7.75;5.30;;;;;;;28.18;41.44;101584.19;5097356;28;20030;-62
2023/06/25 10:18:57;;;;;;;6.68;4.88;;;;;;;28.35;41.18;101594.84;5097002;28;20043;-63
2023/06/25 10:21:26;;;;;;;7.82;4.82;;;;;;;28.42;42.08;101587.59;5096834;28;20070;-63
2023/06/25 10:23:59;;;;;;;6.55;5.28;;;;;;;28.33;39.91;101580.53;5114574;28;20023;-62
2023/06/25 10:26:33;;;;;;;5.53;5.03;;;;;;;28.59;40.69;101585.41;5097116;28;20035;-63
2023/06/25 10:29:01;;;;;;;6.00;4.97;;;;;;;28.55;39.09;101584.97;5115217;28;20051;-63
2023/06/25 10:31:36;;;;;;;5.50;5.00;;;;;;;28.50;40.06;101584.69;5096385;28;20118;-63
2023/06/25 10:34:04;;;;;;;6.43;5.03;;;;;;;28.65;39.38;101582.75;5114975;28;20019;-63
2023/06/25 10:36:29;;;;;;;5.88;5.30;;;;;;;28.66;39.68;101572.63;5115216;28;20027;-63
2023/06/25 10:38:56;;;;;;;7.00;4.72;;;;;;;28.71;38.68;101578.38;5114386;28;20028;-63
2023/06/25 10:41:29;;;;;;;5.47;4.97;;;;;;;28.75;37.88;101568.69;5096539;28;20015;-63
2023/06/25 10:43:58;;;;;;;5.47;4.97;;;;;;;28.78;39.29;101565.56;5096197;28;20024;-63
2023/06/25 10:46:30;;;;;;;5.35;4.85;;;;;;;29.02;39.14;101568.88;5114684;28;20028;-63
2023/06/25 10:48:59;;;;;;;5.38;4.75;;;;;;;29.06;38.77;101565.59;5114347;28;20055;-62
2023/06/25 10:51:25;;;;;;;6.95;4.75;;;;;;;29.00;38.18;101558.09;5096016;28;20023;-63
2023/06/25 10:53:56;;;;;;;5.40;4.68;;;;;;;29.05;38.00;101563.88;5113952;28;20063;-63
2023/06/25 10:56:23;;;;;;;6.40;5.03;;;;;;;29.20;37.16;101550.03;5114586;28;20042;-63
2023/06/25 10:58:58;;;;;;;7.45;5.15;;;;;;;29.29;38.34;101556.19;5095556;28;20393;-63
2023/06/25 11:01:24;;;;;;;5.90;5.15;;;;;;;29.26;37.88;101560.19;5114151;28;20104;-63
2023/06/25 11:03:50;;;;;;;6.78;4.75;;;;;;;29.29;37.65;101548.81;5096073;28;20059;-63
2023/06/25 11:06:15;;;;;;;5.85;4.88;;;;;;;29.39;37.34;101534.75;5114469;28;20097;-63
2023/06/25 11:08:41;;;;;;;5.32;4.82;;;;;;;29.43;37.91;101534.13;5078644;28;20019;-63
2023/06/25 11:11:09;;;;;;;5.03;4.60;;;;;;;29.59;38.63;101537.56;5095528;28;20036;-63
2023/06/25 11:13:34;;;;;;;5.60;5.03;;;;;;;29.44;37.11;101540.44;5113925;28;20055;-63